Currently 67°F in Wildomar, California, USA
67°F
68°F / 57°F
8 mph S
0.00"
Monday, May 21, 2018 1:44 PM PDT

Wildomar, California Weather Summary
Last 36 Hours

Temperature Winds Hourly Humidity Dewpoint
Time Report Norm Report Norm Max Gusts Precip. Rpt. Norm Rpt. Norm Pressure
1Mon 01:44 PM  66.8°F  78°F  8 mph S  4 mph  9 mph  0.00"  61%  40%  53°F  51°F  N/A
Mon 01:00 PM  65.9°F  76°F  8 mph S  4 mph  14 mph  0.00"  62%  41%  52°F  50°F  N/A
Mon 12:00 PM  66.0°F  74°F  4 mph S  3 mph  16 mph  0.00"  61%  45%  52°F  50°F  N/A
2Mon 11:19 AM  67.8°F  72°F  6 mph S  3 mph  13 mph  ----  58%  48%  52°F  50°F  N/A
Mon 11:00 AM  66.4°F  71°F  8 mph S  3 mph  14 mph  0.00"  61%  50%  52°F  51°F  N/A
Mon 10:00 AM  62.5°F  67°F  7 mph S  3 mph  16 mph  0.00"  69%  58%  52°F  51°F  N/A
Mon 09:00 AM  61.4°F  63°F  4 mph S  2 mph  12 mph  0.00"  72%  66%  52°F  51°F  N/A
Mon 08:00 AM  58.7°F  59°F  5 mph S  2 mph  12 mph  0.00"  77%  76%  51°F  51°F  N/A
Mon 07:00 AM  57.2°F  55°F  3 mph S  1 mph  12 mph  0.00"  81%  85%  51°F  50°F  N/A
Mon 06:00 AM  56.8°F  53°F  3 mph S  1 mph  9 mph  0.00"  84%  85%  52°F  49°F  N/A
3Mon 05:40 AM  56.6°F  53°F  2 mph S  1 mph  7 mph  ----  84%  85%  52°F  49°F  N/A
Mon 05:00 AM  56.7°F  54°F  4 mph S  1 mph  14 mph  0.00"  85%  84%  52°F  49°F  N/A
Mon 04:00 AM  57.8°F  54°F  8 mph S  1 mph  15 mph  0.00"  83%  83%  52°F  49°F  N/A
Mon 03:00 AM  58.6°F  55°F  5 mph S  1 mph  12 mph  0.00"  82%  82%  53°F  49°F  N/A
Mon 02:00 AM  58.8°F  55°F  4 mph S  1 mph  15 mph  0.00"  82%  81%  53°F  49°F  N/A
Mon 01:00 AM  58.6°F  56°F  7 mph S  1 mph  17 mph  0.00"  83%  80%  53°F  50°F  N/A
Mon 12:00 AM  59.1°F  57°F  4 mph S  1 mph  14 mph  0.00"  83%  79%  54°F  50°F  N/A
Sun 11:00 PM  59.5°F  58°F  3 mph S  1 mph  13 mph  0.00"  82%  76%  54°F  50°F  N/A
Sun 10:00 PM  59.5°F  59°F  7 mph S  1 mph  13 mph  0.00"  83%  74%  54°F  50°F  N/A
Sun 09:00 PM  59.4°F  61°F  6 mph S  2 mph  14 mph  0.00"  84%  69%  54°F  51°F  N/A
Sun 08:00 PM  61.1°F  64°F  3 mph S  3 mph  14 mph  0.00"  80%  63%  55°F  51°F  N/A
Sun 07:00 PM  64.1°F  68°F  5 mph S  5 mph  23 mph  0.00"  74%  55%  55°F  51°F  N/A
Sun 06:00 PM  67.7°F  72°F  9 mph S  6 mph  19 mph  0.00"  67%  46%  56°F  50°F  N/A
Sun 05:00 PM  71.3°F  76°F  10 mph S  6 mph  19 mph  0.00"  59%  41%  56°F  50°F  N/A
Sun 04:00 PM  76.2°F  79°F  8 mph S  6 mph  13 mph  0.00"  51%  37%  56°F  50°F  N/A
Sun 03:00 PM  77.8°F  79°F  9 mph S  6 mph  14 mph  0.00"  49%  37%  56°F  50°F  N/A
Sun 02:00 PM  74.6°F  78°F  7 mph S  4 mph  16 mph  0.00"  53%  39%  56°F  50°F  N/A
Sun 01:00 PM  73.4°F  76°F  7 mph S  4 mph  13 mph  0.00"  55%  42%  56°F  50°F  N/A
Sun 12:00 PM  70.7°F  74°F  5 mph S  3 mph  9 mph  0.00"  58%  45%  55°F  50°F  N/A
Sun 11:00 AM  66.1°F  71°F  5 mph S  3 mph  8 mph  0.00"  66%  50%  54°F  51°F  N/A
Sun 10:00 AM  62.7°F  67°F  2 mph S  3 mph  6 mph  0.00"  76%  58%  55°F  51°F  N/A
Sun 09:00 AM  60.7°F  63°F  2 mph S  2 mph  6 mph  0.00"  80%  66%  54°F  51°F  N/A
Sun 08:00 AM  59.5°F  59°F  calm  2 mph  4 mph  0.00"  83%  76%  54°F  51°F  N/A
Sun 07:00 AM  59.0°F  55°F  1 mph S  1 mph  6 mph  0.00"  86%  85%  55°F  50°F  N/A
Sun 06:00 AM  58.8°F  53°F  calm  1 mph  3 mph  0.00"  86%  85%  54°F  49°F  N/A
Sun 05:00 AM  58.8°F  54°F  calm  1 mph  3 mph  0.00"  85%  84%  54°F  49°F  N/A
Sun 04:00 AM  59.0°F  54°F  calm  1 mph  4 mph  0.00"  85%  83%  54°F  49°F  N/A
Sun 03:00 AM  59.0°F  54°F  calm  1 mph  6 mph  0.00"  84%  82%  54°F  49°F  N/A
Sun 02:00 AM  58.7°F  55°F  calm  1 mph  2 mph  0.00"  85%  81%  54°F  49°F  N/A

  1. Current weather data. No green row appears if the current weather data is also the high or low for the current day.
  2. High temperature for the current day.
  3. Low temperature for the current day.

The Wildomar, California weather pages are a service of WeatherCurrents. Wildomar is located southwestern Riverside County, California, north of Murrieta and south of Lake Elsinore.
Copyright ©Mon May 21 13:44:50 PDT 2018  WeatherCurrents. All rights reserved. - Submit questions and comments - Privacy Policy

This page automatically refreshes every 10 minutes.